ENEG weather

Eggemoen Airport
H√łnefoss, Buskerud, Norway

Public forecast

Using degrees Celsius for public forecast. Weather courtesy of forecast.io.

Closest aviation weather report (METAR) to Eggemoen Airport

Closest report is Oslo, Fornebu Airport, 21.2 nm (39.3 km) SSE. Retrieved 2019/11/15 09:20 UTC (0 seconds ago):

ENFB 150920Z AUTO 05009KT 9999NDV SCT087/// 07/00 Q1021 W///S5

Closest aviation forecast (TAF) to Eggemoen Airport

Closest forecast is Oslo Gardermoen Airport, 23.2 nm (43.0 km) E. Retrieved 2019/11/15 06:57 UTC (2 hours ago):

TAF ENGM 150500Z 1506/1606 36005KT 7000 OVC012 PROB40 TEMPO 1506/1606 3000 BR OVC003